Time;durP1;ratioP1;P1;durP2;ratioP2;P2;SDS_P1;SDS_P2;PMS_P1;PMS_P2;Temp;Humidity;BMP_temperature;BMP_pressure;BME280_temperature;BME280_humidity;BME280_pressure;Samples;Min_cycle;Max_cycle;Signal;HPM_P1;HPM_P2
2022/01/29 00:02:22;;;;;;;18.08;14.05;;;5.00;99.90;;;;;;5012493;28;20284;-65
2022/01/29 00:04:51;;;;;;;18.23;14.98;;;5.00;99.90;;;;;;5007699;28;20205;-64
2022/01/29 00:07:18;;;;;;;16.20;12.90;;;5.00;99.90;;;;;;5011979;28;20320;-63
2022/01/29 00:09:47;;;;;;;18.23;13.50;;;5.00;99.90;;;;;;5005579;28;20200;-64
2022/01/29 00:12:16;;;;;;;16.23;12.20;;;5.00;99.90;;;;;;5008410;28;20201;-64
2022/01/29 00:14:44;;;;;;;14.40;12.55;;;5.10;99.90;;;;;;5013891;28;20288;-64
2022/01/29 00:17:13;;;;;;;16.30;13.05;;;5.10;99.90;;;;;;5017439;28;20229;-65
2022/01/29 00:19:42;;;;;;;20.40;14.85;;;5.20;99.90;;;;;;5013894;28;20217;-64
2022/01/29 00:22:10;;;;;;;20.55;13.70;;;5.30;99.90;;;;;;5013556;28;20296;-65
2022/01/29 00:24:38;;;;;;;12.80;11.48;;;5.40;99.90;;;;;;5013664;28;20569;-64
2022/01/29 00:27:09;;;;;;;13.98;12.48;;;5.40;99.90;;;;;;5013691;28;20285;-65
2022/01/29 00:29:39;;;;;;;14.43;11.43;;;5.30;99.90;;;;;;5007336;28;20292;-65
2022/01/29 00:32:08;;;;;;;15.65;11.20;;;5.30;99.90;;;;;;5007565;28;20702;-65
2022/01/29 00:34:36;;;;;;;12.23;10.48;;;5.50;99.90;;;;;;5013590;28;20236;-65
2022/01/29 00:37:06;;;;;;;15.52;11.57;;;5.50;99.90;;;;;;5013382;28;20240;-65
2022/01/29 00:39:34;;;;;;;15.90;11.57;;;5.60;99.90;;;;;;5013650;28;20228;-64
2022/01/29 00:42:02;;;;;;;14.38;11.02;;;5.60;99.90;;;;;;5013384;28;20232;-64
2022/01/29 00:44:44;;;;;;;13.50;10.25;;;5.50;99.90;;;;;;5014372;28;20680;-64
2022/01/29 00:47:12;;;;;;;14.30;10.85;;;5.50;99.90;;;;;;5013975;28;20300;-64
2022/01/29 00:49:40;;;;;;;13.50;10.77;;;5.40;99.90;;;;;;5013838;28;20292;-63
2022/01/29 00:52:09;;;;;;;16.65;11.40;;;5.30;99.90;;;;;;5013856;28;20247;-63
2022/01/29 00:54:37;;;;;;;14.55;11.13;;;5.30;99.90;;;;;;5013701;28;20197;-64
2022/01/29 00:57:06;;;;;;;16.60;10.65;;;5.30;99.90;;;;;;5010816;28;20650;-64
2022/01/29 00:59:34;;;;;;;18.10;12.70;;;5.30;99.90;;;;;;5013792;28;20299;-64
2022/01/29 01:02:04;;;;;;;14.50;11.38;;;5.20;99.90;;;;;;5013264;28;20284;-63
2022/01/29 01:04:32;;;;;;;14.35;12.50;;;5.20;99.90;;;;;;5013543;28;20228;-63
2022/01/29 01:07:00;;;;;;;18.23;13.25;;;5.20;99.90;;;;;;5013262;28;20578;-64
2022/01/29 01:09:29;;;;;;;15.75;11.95;;;5.20;99.90;;;;;;5013555;28;20198;-64
2022/01/29 01:11:57;;;;;;;13.90;12.15;;;5.10;99.90;;;;;;5013364;28;20239;-64
2022/01/29 01:14:25;;;;;;;15.02;12.65;;;5.20;99.90;;;;;;5013340;28;20276;-64
2022/01/29 01:16:53;;;;;;;18.02;12.52;;;5.10;99.90;;;;;;5012967;28;20279;-63
2022/01/29 01:19:25;;;;;;;15.73;11.82;;;5.00;99.90;;;;;;5013207;28;20264;-63
2022/01/29 01:21:57;;;;;;;15.25;13.45;;;5.00;99.90;;;;;;5016303;28;20224;-63
2022/01/29 01:24:26;;;;;;;14.45;12.77;;;5.00;99.90;;;;;;5012733;28;20236;-64
2022/01/29 01:26:55;;;;;;;17.15;13.98;;;5.00;99.90;;;;;;5012425;28;20359;-63
2022/01/29 01:29:23;;;;;;;15.70;13.18;;;5.00;99.90;;;;;;5012901;28;20296;-63
2022/01/29 01:31:51;;;;;;;16.30;13.98;;;5.00;99.90;;;;;;5033930;23;20752;-70
2022/01/29 01:34:21;;;;;;;14.60;12.63;;;4.90;99.90;;;;;;5011786;28;20296;-69
2022/01/29 01:36:53;;;;;;;15.52;13.10;;;4.90;99.90;;;;;;5012423;28;20284;-69
2022/01/29 01:39:25;;;;;;;15.55;12.77;;;5.00;99.90;;;;;;5012699;28;20296;-70
2022/01/29 01:41:59;;;;;;;14.25;12.45;;;4.90;99.90;;;;;;5012668;28;20320;-69
2022/01/29 01:44:34;;;;;;;13.93;12.07;;;4.90;99.90;;;;;;5012607;28;20288;-69
2022/01/29 01:47:02;;;;;;;13.40;12.00;;;4.90;99.90;;;;;;5012139;28;20208;-69
2022/01/29 01:49:30;;;;;;;15.05;11.48;;;5.10;99.90;;;;;;5012559;28;20299;-69
2022/01/29 01:51:58;;;;;;;15.32;12.82;;;5.10;99.90;;;;;;5012174;28;20779;-69
2022/01/29 01:54:26;;;;;;;17.00;12.10;;;5.00;99.90;;;;;;5012190;28;20301;-70
2022/01/29 01:56:55;;;;;;;14.52;12.90;;;5.00;99.90;;;;;;5011229;28;20289;-69
2022/01/29 01:59:23;;;;;;;13.73;12.13;;;4.80;99.90;;;;;;5012124;28;20229;-69
2022/01/29 02:01:51;;;;;;;16.38;11.10;;;4.90;99.90;;;;;;5011992;28;20259;-69
2022/01/29 02:04:19;;;;;;;13.85;12.23;;;4.90;99.90;;;;;;5012211;28;20201;-69
2022/01/29 02:06:50;;;;;;;15.27;11.63;;;5.00;99.90;;;;;;5011945;28;20288;-69
2022/01/29 02:09:20;;;;;;;13.75;11.75;;;5.00;99.90;;;;;;5011986;28;20232;-69
2022/01/29 02:11:53;;;;;;;11.80;10.23;;;4.90;99.90;;;;;;5012290;28;20647;-69
2022/01/29 02:14:27;;;;;;;11.75;10.65;;;4.90;99.90;;;;;;5011917;28;20232;-68
2022/01/29 02:16:55;;;;;;;12.90;10.00;;;5.00;99.90;;;;;;5011803;28;20308;-70
2022/01/29 02:19:23;;;;;;;12.55;11.25;;;4.90;99.90;;;;;;5011737;28;20202;-69
2022/01/29 02:21:52;;;;;;;11.40;10.18;;;5.00;99.90;;;;;;5011853;28;20261;-69
2022/01/29 02:24:20;;;;;;;12.10;10.82;;;5.00;99.90;;;;;;5011598;28;20284;-70
2022/01/29 02:26:48;;;;;;;10.20;9.25;;;5.00;99.90;;;;;;5013687;28;20243;-69
2022/01/29 02:29:16;;;;;;;12.27;11.07;;;4.90;99.90;;;;;;5015117;28;20292;-69
2022/01/29 02:31:49;;;;;;;12.60;10.93;;;5.00;99.90;;;;;;5011724;28;20316;-69
2022/01/29 02:34:17;;;;;;;16.83;11.35;;;4.90;99.90;;;;;;5011854;28;20255;-69
2022/01/29 02:36:46;;;;;;;13.07;11.40;;;4.90;99.90;;;;;;5012091;28;20280;-70
2022/01/29 02:39:17;;;;;;;13.80;11.50;;;4.90;99.90;;;;;;5011829;28;20228;-70
2022/01/29 02:41:45;;;;;;;12.18;10.90;;;4.90;99.90;;;;;;5011987;28;20323;-70
2022/01/29 02:44:18;;;;;;;13.27;11.88;;;4.80;99.90;;;;;;5011839;28;20237;-69
2022/01/29 02:46:51;;;;;;;13.95;12.55;;;4.80;99.90;;;;;;5011803;28;20212;-69
2022/01/29 02:49:21;;;;;;;15.38;12.98;;;4.70;99.90;;;;;;5011945;28;20205;-69
2022/01/29 02:51:51;;;;;;;13.82;11.48;;;4.70;99.90;;;;;;5011626;28;20248;-69
2022/01/29 02:54:21;;;;;;;14.23;12.60;;;4.80;99.90;;;;;;5011385;28;20701;-69
2022/01/29 02:56:49;;;;;;;15.80;13.30;;;4.80;99.90;;;;;;5011408;28;20240;-68
2022/01/29 02:59:17;;;;;;;16.15;13.30;;;4.80;99.90;;;;;;5011438;28;20237;-70
2022/01/29 03:01:44;;;;;;;13.48;12.07;;;4.80;99.90;;;;;;5011400;28;20304;-69
2022/01/29 03:04:12;;;;;;;16.35;13.30;;;4.80;99.90;;;;;;5011136;28;20591;-69
2022/01/29 03:06:40;;;;;;;13.90;12.50;;;4.80;99.90;;;;;;5011442;28;20241;-69
2022/01/29 03:09:09;;;;;;;14.73;13.02;;;4.80;99.90;;;;;;5014076;28;20229;-69
2022/01/29 03:11:38;;;;;;;14.02;12.32;;;4.80;99.90;;;;;;5015326;28;20311;-69
2022/01/29 03:14:06;;;;;;;17.63;14.27;;;4.80;99.90;;;;;;5015158;28;20283;-69
2022/01/29 03:16:34;;;;;;;15.52;13.32;;;4.80;99.90;;;;;;5015428;28;20646;-70
2022/01/29 03:19:02;;;;;;;14.18;12.75;;;4.80;99.90;;;;;;5015277;28;20212;-68
2022/01/29 03:21:30;;;;;;;16.92;14.82;;;4.80;99.90;;;;;;5015309;28;20225;-69
2022/01/29 03:23:57;;;;;;;16.17;13.77;;;4.80;99.90;;;;;;5014998;28;20300;-69
2022/01/29 03:26:25;;;;;;;15.05;12.95;;;4.90;99.90;;;;;;5014390;28;20292;-69
2022/01/29 03:28:54;;;;;;;15.10;13.50;;;4.90;99.90;;;;;;5015011;28;20201;-69
2022/01/29 03:31:26;;;;;;;16.75;14.98;;;4.90;99.90;;;;;;5016844;28;20272;-69
2022/01/29 03:33:55;;;;;;;17.75;15.85;;;5.00;99.90;;;;;;5020289;28;20256;-70
2022/01/29 03:36:23;;;;;;;16.02;14.48;;;4.80;99.90;;;;;;5017247;28;20714;-70
2022/01/29 03:38:51;;;;;;;18.65;15.00;;;4.70;99.90;;;;;;5016713;28;20256;-69
2022/01/29 03:41:19;;;;;;;17.13;15.43;;;4.70;99.90;;;;;;5016294;28;20750;-69
2022/01/29 03:43:50;;;;;;;16.30;14.60;;;4.70;99.90;;;;;;5017056;28;20289;-69
2022/01/29 03:46:20;;;;;;;17.45;15.55;;;4.90;99.90;;;;;;5016611;28;20201;-69
2022/01/29 03:48:48;;;;;;;16.23;14.52;;;4.80;99.90;;;;;;5017042;28;20205;-69
2022/01/29 03:51:16;;;;;;;18.63;15.38;;;4.90;99.90;;;;;;5016784;28;20304;-69
2022/01/29 03:53:44;;;;;;;18.10;16.25;;;4.80;99.90;;;;;;5016801;28;20235;-69
2022/01/29 03:56:11;;;;;;;18.67;16.67;;;4.80;99.90;;;;;;5014716;28;20288;-67
2022/01/29 03:58:39;;;;;;;20.45;17.85;;;4.80;99.90;;;;;;5000484;28;20233;-70
2022/01/29 04:01:07;;;;;;;19.20;16.75;;;4.70;99.90;;;;;;5014413;28;20308;-69
2022/01/29 04:03:36;;;;;;;22.80;17.65;;;4.70;99.90;;;;;;5014460;28;20686;-70
2022/01/29 04:06:05;;;;;;;19.90;17.95;;;4.70;99.90;;;;;;5014297;28;20308;-69
2022/01/29 04:08:39;;;;;;;19.77;17.67;;;4.60;99.90;;;;;;5014095;28;20300;-69
2022/01/29 04:11:08;;;;;;;19.63;17.50;;;4.70;99.90;;;;;;5008867;28;20248;-69
2022/01/29 04:13:37;;;;;;;21.60;18.23;;;4.80;99.90;;;;;;5014052;28;20284;-70
2022/01/29 04:16:06;;;;;;;19.23;17.23;;;4.70;99.90;;;;;;5014316;28;20292;-69
2022/01/29 04:18:34;;;;;;;22.83;17.80;;;4.60;99.90;;;;;;5014196;28;20205;-69
2022/01/29 04:21:04;;;;;;;18.70;16.77;;;4.80;99.90;;;;;;5013560;28;20652;-69
2022/01/29 04:23:32;;;;;;;18.63;16.63;;;4.80;99.90;;;;;;5014139;28;20266;-69
2022/01/29 04:26:01;;;;;;;19.55;17.17;;;4.80;99.90;;;;;;5014111;28;20229;-70
2022/01/29 04:28:33;;;;;;;20.15;17.35;;;4.80;99.90;;;;;;5013745;28;20207;-71
2022/01/29 04:31:06;;;;;;;21.20;18.08;;;4.70;99.90;;;;;;5013638;28;20251;-70
2022/01/29 04:33:34;;;;;;;21.38;19.08;;;4.70;99.90;;;;;;5014208;28;20259;-70
2022/01/29 04:36:06;;;;;;;21.75;18.25;;;4.70;99.90;;;;;;5013910;28;20288;-70
2022/01/29 04:38:34;;;;;;;22.05;18.85;;;4.60;99.90;;;;;;5016218;28;20308;-70
2022/01/29 04:41:04;;;;;;;22.25;18.55;;;4.60;99.90;;;;;;5017489;28;20223;-70
2022/01/29 04:43:32;;;;;;;22.17;19.73;;;4.60;99.90;;;;;;5013376;28;20312;-70
2022/01/29 04:46:05;;;;;;;22.90;18.25;;;4.70;99.90;;;;;;5013937;28;20568;-70
2022/01/29 04:48:33;;;;;;;23.23;20.60;;;4.70;99.90;;;;;;5013463;28;20209;-70
2022/01/29 04:51:01;;;;;;;22.20;19.90;;;4.70;99.90;;;;;;5013485;28;20225;-71
2022/01/29 04:53:30;;;;;;;20.08;17.90;;;4.60;99.90;;;;;;5013399;28;20217;-70
2022/01/29 04:55:58;;;;;;;22.95;18.38;;;4.60;99.90;;;;;;5013434;28;20232;-70
2022/01/29 04:58:25;;;;;;;21.35;18.55;;;4.60;99.90;;;;;;5013251;28;20211;-70
2022/01/29 05:00:53;;;;;;;19.90;16.58;;;4.60;99.90;;;;;;5013306;28;20225;-70
2022/01/29 05:03:27;;;;;;;23.10;20.63;;;4.60;99.90;;;;;;5013171;28;20207;-70
2022/01/29 05:05:55;;;;;;;20.42;18.40;;;4.50;99.90;;;;;;5013258;28;20208;-70
2022/01/29 05:08:23;;;;;;;23.00;17.30;;;4.50;99.90;;;;;;5013061;28;20644;-71
2022/01/29 05:10:53;;;;;;;21.02;18.77;;;4.50;99.90;;;;;;5012984;28;20316;-70
2022/01/29 05:13:24;;;;;;;19.55;17.60;;;4.60;99.90;;;;;;5006676;28;20624;-70
2022/01/29 05:16:06;;;;;;;19.80;17.58;;;4.50;99.90;;;;;;5007374;28;20218;-70
2022/01/29 05:26:58;;;;;;;19.00;16.92;;;4.50;99.90;;;;;;5012606;28;20296;-70
2022/01/29 05:29:30;;;;;;;19.08;17.08;;;4.50;99.90;;;;;;5012614;28;20673;-70
2022/01/29 05:32:00;;;;;;;19.25;16.45;;;4.50;99.90;;;;;;5011501;28;20234;-70
2022/01/29 05:34:28;;;;;;;18.38;15.15;;;4.60;99.90;;;;;;5012757;28;20725;-71
2022/01/29 05:36:56;;;;;;;18.80;15.30;;;4.60;99.90;;;;;;5012638;28;20209;-72
2022/01/29 05:39:25;;;;;;;20.08;16.27;;;4.70;99.90;;;;;;5012506;28;20240;-71
2022/01/29 05:41:54;;;;;;;16.20;14.48;;;4.70;99.90;;;;;;5012526;28;20312;-69
2022/01/29 05:44:22;;;;;;;17.23;15.43;;;4.60;99.90;;;;;;5017127;28;20220;-71
2022/01/29 05:46:50;;;;;;;15.70;14.10;;;4.60;99.90;;;;;;5013499;28;20628;-71
2022/01/29 05:49:18;;;;;;;16.80;15.10;;;4.60;99.90;;;;;;5012449;28;20640;-70
2022/01/29 05:51:46;;;;;;;17.85;14.10;;;4.50;99.90;;;;;;5012368;28;20626;-70
2022/01/29 05:54:14;;;;;;;15.60;13.95;;;4.50;99.90;;;;;;5012057;28;20209;-70
2022/01/29 05:56:41;;;;;;;16.52;12.65;;;4.60;99.90;;;;;;5011981;28;20722;-70
2022/01/29 05:59:11;;;;;;;14.68;13.18;;;4.60;99.90;;;;;;5012421;28;20201;-70
2022/01/29 06:01:39;;;;;;;15.82;13.32;;;4.60;99.90;;;;;;5012256;28;20315;-71
2022/01/29 06:04:07;;;;;;;15.85;14.25;;;4.50;99.90;;;;;;5011980;28;20212;-70
2022/01/29 06:06:35;;;;;;;17.40;14.88;;;4.50;99.90;;;;;;5012082;28;20292;-70
2022/01/29 06:09:04;;;;;;;15.32;13.82;;;4.50;99.90;;;;;;5011861;28;20714;-70
2022/01/29 06:11:33;;;;;;;15.65;14.05;;;4.50;99.90;;;;;;5012111;28;20296;-70
2022/01/29 06:14:01;;;;;;;16.23;13.95;;;4.60;99.90;;;;;;5005757;28;20304;-71
2022/01/29 06:16:30;;;;;;;15.05;13.45;;;4.50;99.90;;;;;;5005978;28;20290;-70
2022/01/29 06:18:58;;;;;;;15.52;13.68;;;4.60;99.90;;;;;;5011707;28;20201;-70
2022/01/29 06:21:26;;;;;;;14.40;13.00;;;4.60;99.90;;;;;;5011889;28;20706;-70
2022/01/29 06:23:54;;;;;;;16.33;14.48;;;4.60;99.90;;;;;;5011403;28;20304;-70
2022/01/29 06:26:22;;;;;;;16.80;15.10;;;4.50;99.90;;;;;;5011830;28;20221;-70
2022/01/29 06:28:50;;;;;;;16.58;14.50;;;4.60;99.90;;;;;;5011519;28;20205;-69
2022/01/29 06:31:19;;;;;;;22.70;14.73;;;4.60;99.90;;;;;;5011583;28;20279;-70
2022/01/29 06:33:48;;;;;;;18.17;15.57;;;4.60;99.90;;;;;;5011555;28;20267;-70
2022/01/29 06:36:16;;;;;;;16.60;14.90;;;4.50;99.90;;;;;;5011539;28;20308;-70
2022/01/29 06:38:44;;;;;;;16.30;14.45;;;4.50;99.90;;;;;;5011494;28;20305;-70
2022/01/29 06:41:12;;;;;;;20.17;17.45;;;4.50;99.90;;;;;;5011552;28;20228;-70
2022/01/29 06:43:39;;;;;;;21.73;17.25;;;4.50;99.90;;;;;;5010972;28;20307;-69
2022/01/29 06:46:07;;;;;;;18.80;16.67;;;4.40;99.90;;;;;;5011632;28;20201;-70
2022/01/29 06:48:35;;;;;;;21.58;18.40;;;4.40;99.90;;;;;;5011412;28;20201;-69
2022/01/29 06:51:05;;;;;;;19.15;16.90;;;4.40;99.90;;;;;;5015324;28;20260;-69
2022/01/29 06:53:33;;;;;;;22.23;19.23;;;4.40;99.90;;;;;;5015194;28;20260;-70
2022/01/29 06:56:01;;;;;;;20.58;17.27;;;4.40;99.90;;;;;;5011038;28;20216;-69
2022/01/29 06:58:29;;;;;;;20.25;16.80;;;4.40;99.90;;;;;;5010017;28;20244;-69
2022/01/29 07:01:17;;;;;;;19.10;17.05;;;4.50;99.90;;;;;;4998744;28;20293;-69
2022/01/29 07:03:45;;;;;;;19.02;17.08;;;4.50;99.90;;;;;;4997667;28;20721;-69
2022/01/29 07:06:14;;;;;;;23.50;18.55;;;4.50;99.90;;;;;;5003139;28;20200;-70
2022/01/29 07:08:42;;;;;;;21.15;16.73;;;4.30;99.90;;;;;;4995662;28;20631;-72
2022/01/29 07:11:10;;;;;;;21.30;18.77;;;4.30;99.90;;;;;;4993113;28;20228;-71
2022/01/29 07:13:39;;;;;;;24.00;20.30;;;4.30;99.90;;;;;;4997211;28;20196;-69
2022/01/29 07:16:07;;;;;;;22.02;19.65;;;4.30;99.90;;;;;;5006349;28;20705;-70
2022/01/29 07:18:35;;;;;;;23.63;19.30;;;4.30;99.90;;;;;;5005969;28;20227;-70
2022/01/29 07:21:03;;;;;;;24.65;20.30;;;4.30;99.90;;;;;;5005909;28;20221;-69
2022/01/29 07:23:36;;;;;;;20.50;17.95;;;4.30;99.90;;;;;;5005707;28;20220;-70
2022/01/29 07:26:04;;;;;;;20.20;17.70;;;4.20;99.90;;;;;;5005552;28;20613;-69
2022/01/29 07:28:32;;;;;;;23.63;19.58;;;4.30;99.90;;;;;;5005855;28;20287;-70
2022/01/29 07:31:00;;;;;;;22.42;17.73;;;4.20;99.90;;;;;;5005883;28;20237;-68
2022/01/29 07:33:28;;;;;;;19.40;17.50;;;4.30;99.90;;;;;;5005944;28;20264;-70
2022/01/29 07:35:57;;;;;;;18.60;16.80;;;4.30;99.90;;;;;;5006058;28;20236;-69
2022/01/29 07:38:24;;;;;;;19.55;17.45;;;4.30;99.90;;;;;;5005821;28;20292;-70
2022/01/29 07:40:54;;;;;;;20.45;17.52;;;4.20;99.90;;;;;;5000108;28;20305;-69
2022/01/29 07:43:22;;;;;;;19.15;17.13;;;4.30;99.90;;;;;;4996226;28;20308;-71
2022/01/29 07:45:50;;;;;;;20.08;17.90;;;4.30;99.90;;;;;;4999954;28;20288;-71
2022/01/29 07:48:18;;;;;;;20.52;18.35;;;4.30;99.90;;;;;;5003799;28;20198;-70
2022/01/29 07:50:46;;;;;;;20.45;18.35;;;4.30;99.90;;;;;;5005758;28;20310;-70
2022/01/29 07:53:14;;;;;;;19.65;17.55;;;4.30;99.90;;;;;;5005392;28;20261;-70
2022/01/29 07:55:41;;;;;;;19.80;17.70;;;4.30;99.90;;;;;;5008600;28;20289;-69
2022/01/29 07:58:11;;;;;;;19.55;17.58;;;4.40;99.90;;;;;;5011256;28;20205;-70
2022/01/29 08:00:39;;;;;;;18.25;16.35;;;4.40;99.90;;;;;;5009093;28;20225;-70
2022/01/29 08:03:07;;;;;;;18.50;16.80;;;4.40;99.90;;;;;;5008885;28;20621;-70
2022/01/29 08:05:36;;;;;;;18.45;16.67;;;4.40;99.90;;;;;;5008800;28;20193;-69
2022/01/29 08:08:04;;;;;;;19.05;17.10;;;4.50;99.90;;;;;;5004234;28;20225;-68
2022/01/29 08:10:32;;;;;;;17.00;15.40;;;4.50;99.90;;;;;;5008729;28;20241;-70
2022/01/29 08:13:00;;;;;;;15.65;14.18;;;4.60;99.90;;;;;;5008815;28;20280;-69
2022/01/29 08:15:30;;;;;;;14.02;12.60;;;4.60;99.90;;;;;;5009086;28;20532;-70
2022/01/29 08:17:58;;;;;;;14.02;12.63;;;4.60;99.90;;;;;;5009281;28;20245;-71
2022/01/29 08:20:25;;;;;;;14.40;12.90;;;4.70;99.90;;;;;;4990797;28;20219;-69
2022/01/29 08:22:53;;;;;;;14.15;12.75;;;4.70;99.90;;;;;;5008388;28;20240;-66
2022/01/29 08:25:21;;;;;;;11.95;10.75;;;4.70;99.90;;;;;;5008598;28;20296;-70
2022/01/29 08:27:49;;;;;;;11.30;10.30;;;4.70;99.90;;;;;;5008684;28;20863;-71
2022/01/29 08:30:17;;;;;;;10.60;9.60;;;4.70;99.90;;;;;;5008107;28;20296;-70
2022/01/29 08:32:46;;;;;;;10.43;9.30;;;4.70;99.90;;;;;;5008615;28;20225;-70
2022/01/29 08:35:15;;;;;;;10.88;9.77;;;4.70;99.90;;;;;;5008328;28;20289;-71
2022/01/29 08:37:45;;;;;;;10.60;9.70;;;4.70;99.90;;;;;;5003666;28;20861;-70
2022/01/29 08:40:13;;;;;;;8.82;7.93;;;4.80;99.90;;;;;;5005286;28;20284;-71
2022/01/29 08:42:41;;;;;;;9.70;8.82;;;4.80;99.90;;;;;;5008283;28;20647;-71
2022/01/29 08:45:10;;;;;;;9.85;8.90;;;4.80;99.90;;;;;;5008223;28;20225;-71
2022/01/29 08:47:39;;;;;;;10.68;9.57;;;4.80;99.90;;;;;;5008086;28;20228;-71
2022/01/29 08:50:10;;;;;;;14.85;10.23;;;5.00;99.90;;;;;;5008026;28;20929;-69
2022/01/29 08:52:38;;;;;;;8.60;7.50;;;5.70;99.90;;;;;;5008124;28;20232;-70
2022/01/29 08:55:08;;;;;;;9.43;7.55;;;5.80;99.90;;;;;;5010761;28;20588;-73
2022/01/29 08:57:36;;;;;;;7.72;7.05;;;6.10;99.90;;;;;;5012986;28;20232;-72
2022/01/29 09:00:06;;;;;;;6.68;6.10;;;5.70;99.90;;;;;;4994281;28;20685;-72
2022/01/29 09:02:34;;;;;;;7.30;6.70;;;5.50;99.90;;;;;;5012898;28;20721;-73
2022/01/29 09:05:02;;;;;;;7.50;6.80;;;5.20;99.90;;;;;;5012483;28;20233;-73
2022/01/29 09:07:32;;;;;;;8.45;7.65;;;5.10;99.90;;;;;;5012718;28;20210;-73
2022/01/29 09:10:01;;;;;;;7.95;7.25;;;5.00;99.90;;;;;;5013134;28;20256;-73
2022/01/29 09:12:29;;;;;;;6.97;6.47;;;4.90;99.90;;;;;;5012761;28;20220;-72
2022/01/29 09:14:58;;;;;;;7.25;6.65;;;4.90;99.90;;;;;;5013322;28;20205;-73
2022/01/29 09:17:26;;;;;;;7.40;6.80;;;4.90;99.90;;;;;;5013184;28;20566;-72
2022/01/29 09:19:54;;;;;;;7.47;6.88;;;4.90;99.90;;;;;;5012931;28;20198;-73
2022/01/29 09:22:22;;;;;;;6.78;6.18;;;4.90;99.90;;;;;;5012659;28;20225;-71
2022/01/29 09:24:51;;;;;;;7.07;6.38;;;4.80;99.90;;;;;;5010975;28;20201;-73
2022/01/29 09:27:19;;;;;;;5.75;5.25;;;4.80;99.90;;;;;;5009981;28;20587;-72
2022/01/29 09:29:47;;;;;;;7.60;6.90;;;4.90;99.90;;;;;;5012626;28;20217;-72
2022/01/29 09:32:15;;;;;;;7.38;6.65;;;4.90;99.90;;;;;;5003137;28;20329;-76
2022/01/29 09:34:43;;;;;;;7.57;6.97;;;4.80;99.90;;;;;;5001751;28;20715;-72
2022/01/29 09:37:11;;;;;;;7.13;6.43;;;4.90;99.90;;;;;;4993994;28;20204;-73
2022/01/29 09:39:42;;;;;;;6.72;6.03;;;4.80;99.90;;;;;;5011290;28;20213;-73
2022/01/29 09:42:12;;;;;;;6.20;5.60;;;4.80;99.90;;;;;;4994823;28;20317;-70
2022/01/29 09:44:42;;;;;;;6.88;6.13;;;4.80;99.90;;;;;;5012482;28;20209;-72
2022/01/29 09:47:11;;;;;;;6.07;5.57;;;4.80;99.90;;;;;;4995079;28;20300;-71
2022/01/29 09:49:39;;;;;;;6.35;5.85;;;4.80;99.90;;;;;;5012319;28;20197;-72
2022/01/29 09:52:08;;;;;;;6.15;5.35;;;4.80;99.90;;;;;;5012071;28;20237;-73
2022/01/29 09:54:37;;;;;;;6.13;5.60;;;4.80;99.90;;;;;;5004787;28;20588;-73
2022/01/29 09:57:05;;;;;;;4.22;3.92;;;4.90;99.90;;;;;;5006300;28;20268;-73
2022/01/29 09:59:35;;;;;;;5.90;5.30;;;4.90;99.90;;;;;;5006730;28;20212;-72
2022/01/29 10:02:03;;;;;;;6.50;6.00;;;4.90;99.90;;;;;;5012092;28;20221;-72
2022/01/29 10:04:49;;;;;;;4.75;4.35;;;4.80;99.90;;;;;;5012259;28;20218;-71
2022/01/29 10:07:19;;;;;;;4.43;4.03;;;4.80;99.90;;;;;;4994688;28;20215;-72
2022/01/29 10:09:48;;;;;;;4.38;3.97;;;4.80;99.90;;;;;;5011904;28;20559;-73
2022/01/29 10:12:18;;;;;;;4.35;4.00;;;4.80;99.90;;;;;;5011837;28;20221;-72
2022/01/29 10:14:50;;;;;;;4.18;3.88;;;4.90;99.90;;;;;;4994311;28;20205;-73
2022/01/29 10:17:40;;;;;;;3.72;3.40;;;4.90;99.90;;;;;;5011753;28;20206;-73
2022/01/29 10:20:13;;;;;;;3.90;3.60;;;4.90;99.90;;;;;;5011873;28;20564;-71
2022/01/29 10:22:44;;;;;;;4.15;3.85;;;4.90;99.90;;;;;;5011967;28;20292;-72
2022/01/29 10:25:14;;;;;;;3.70;3.40;;;5.00;99.90;;;;;;5011737;28;20219;-72
2022/01/29 10:28:13;;;;;;;3.22;3.03;;;5.00;99.90;;;;;;4994388;28;20205;-71
2022/01/29 10:31:02;;;;;;;3.63;3.42;;;5.00;99.90;;;;;;5008481;28;20236;-73
2022/01/29 10:33:32;;;;;;;3.90;3.65;;;5.00;99.90;;;;;;5010615;28;20301;-72
2022/01/29 10:36:02;;;;;;;3.85;3.65;;;5.00;99.90;;;;;;5010994;28;20268;-71
2022/01/29 10:38:44;;;;;;;3.67;3.40;;;5.00;99.90;;;;;;5008999;28;20708;-73
2022/01/29 10:41:18;;;;;;;3.72;3.42;;;5.10;99.90;;;;;;5011851;28;20682;-71
2022/01/29 10:44:12;;;;;;;3.50;3.30;;;5.10;99.90;;;;;;5011690;28;20236;-73
2022/01/29 10:46:47;;;;;;;4.22;3.92;;;5.10;99.90;;;;;;5006933;28;20212;-73
2022/01/29 10:49:24;;;;;;;5.25;4.75;;;5.10;99.90;;;;;;5007761;28;20296;-72
2022/01/29 10:52:02;;;;;;;3.40;3.20;;;5.20;99.90;;;;;;5011426;28;20592;-73
2022/01/29 10:54:31;;;;;;;3.50;3.25;;;5.30;99.90;;;;;;5005631;28;20212;-73
2022/01/29 10:57:02;;;;;;;2.80;2.70;;;5.30;99.90;;;;;;5011699;28;20696;-72
2022/01/29 10:59:32;;;;;;;3.33;3.10;;;5.40;99.90;;;;;;5011562;28;20231;-73
2022/01/29 11:02:03;;;;;;;3.00;2.80;;;5.40;99.90;;;;;;5011039;28;20542;-72
2022/01/29 11:04:32;;;;;;;2.47;2.28;;;5.40;99.90;;;;;;5011333;28;20193;-73
2022/01/29 11:07:04;;;;;;;2.67;2.53;;;5.40;99.90;;;;;;5011391;28;20357;-72
2022/01/29 11:09:35;;;;;;;3.10;2.90;;;5.50;99.90;;;;;;5012005;28;20232;-73
2022/01/29 11:12:04;;;;;;;3.20;3.00;;;5.50;99.90;;;;;;4993823;28;20229;-73
2022/01/29 11:14:33;;;;;;;2.40;2.30;;;5.60;99.90;;;;;;5011666;28;20284;-72
2022/01/29 11:17:03;;;;;;;2.80;2.60;;;5.60;99.90;;;;;;5011526;28;20304;-73
2022/01/29 11:19:32;;;;;;;2.63;2.42;;;5.60;99.90;;;;;;5015219;28;20673;-72
2022/01/29 11:22:05;;;;;;;3.30;3.00;;;5.70;99.90;;;;;;5015372;28;20228;-71
2022/01/29 11:24:35;;;;;;;2.67;2.47;;;5.70;99.90;;;;;;5011182;28;20197;-72
2022/01/29 11:27:03;;;;;;;2.80;2.60;;;5.70;99.90;;;;;;5011348;28;20244;-73
2022/01/29 11:29:34;;;;;;;2.88;2.72;;;5.70;99.90;;;;;;5011286;28;20223;-74
2022/01/29 11:32:32;;;;;;;3.70;3.50;;;5.70;99.90;;;;;;5014593;28;20327;-73
2022/01/29 11:35:19;;;;;;;3.13;2.92;;;5.70;99.90;;;;;;4998892;28;20213;-73
2022/01/29 11:37:53;;;;;;;3.70;3.35;;;5.80;99.90;;;;;;5014724;28;20213;-71
2022/01/29 11:40:27;;;;;;;4.65;3.75;;;5.70;99.90;;;;;;4995561;28;20192;-75
2022/01/29 11:43:24;;;;;;;3.42;3.22;;;5.80;99.90;;;;;;5015174;28;20233;-76
2022/01/29 11:45:54;;;;;;;3.28;2.97;;;5.80;99.90;;;;;;4995138;28;20209;-73
2022/01/29 11:48:54;;;;;;;2.80;2.60;;;5.80;99.90;;;;;;5014789;28;20247;-75
2022/01/29 11:51:50;;;;;;;3.00;2.80;;;5.80;99.90;;;;;;5014630;28;20878;-75
2022/01/29 11:54:23;;;;;;;2.13;2.03;;;5.80;99.90;;;;;;5008188;28;20193;-74
2022/01/29 11:57:10;;;;;;;2.95;2.75;;;5.80;99.90;;;;;;5004343;28;20198;-75
2022/01/29 11:59:40;;;;;;;3.85;3.38;;;5.80;99.90;;;;;;5008420;28;20259;-75
2022/01/29 12:02:40;;;;;;;3.08;2.88;;;5.80;99.90;;;;;;5005017;28;20324;-74
2022/01/29 12:05:31;;;;;;;2.95;2.75;;;5.80;99.90;;;;;;5000104;28;20307;-76
2022/01/29 12:08:10;;;;;;;4.97;3.60;;;5.70;99.90;;;;;;5010809;28;20676;-73
2022/01/29 12:10:42;;;;;;;4.75;3.90;;;5.70;99.90;;;;;;5013896;28;20240;-73
2022/01/29 12:13:13;;;;;;;3.85;3.50;;;5.70;99.90;;;;;;5006792;28;20205;-71
2022/01/29 12:15:41;;;;;;;3.85;3.55;;;5.60;99.90;;;;;;5006740;28;20285;-74
2022/01/29 12:18:31;;;;;;;7.20;3.75;;;5.60;99.90;;;;;;5014385;28;20197;-74
2022/01/29 12:21:02;;;;;;;4.05;3.75;;;5.70;99.90;;;;;;5013928;28;20292;-74
2022/01/29 12:23:30;;;;;;;3.45;3.15;;;5.70;99.90;;;;;;5013365;28;20197;-73
2022/01/29 12:26:00;;;;;;;3.60;3.40;;;5.60;99.90;;;;;;5018432;28;20233;-74
2022/01/29 12:28:28;;;;;;;3.42;3.13;;;5.70;99.90;;;;;;5013723;28;20201;-74
2022/01/29 12:30:58;;;;;;;3.88;3.67;;;5.70;99.90;;;;;;5013342;28;20233;-73
2022/01/29 12:33:26;;;;;;;4.82;4.30;;;5.70;99.90;;;;;;5013518;28;20724;-74
2022/01/29 12:35:57;;;;;;;5.32;4.93;;;5.70;99.90;;;;;;5010228;28;20201;-74
2022/01/29 12:38:29;;;;;;;3.28;2.97;;;5.80;99.90;;;;;;5007064;28;20232;-74
2022/01/29 12:41:02;;;;;;;4.05;3.75;;;5.70;99.90;;;;;;5003513;28;20233;-76
2022/01/29 12:43:35;;;;;;;3.55;3.35;;;5.70;99.90;;;;;;5003014;28;20222;-78
2022/01/29 12:46:14;;;;;;;3.88;3.60;;;5.70;99.90;;;;;;4998055;28;20209;-76
2022/01/29 12:48:44;;;;;;;4.22;3.90;;;5.80;99.90;;;;;;5002759;28;20199;-76
2022/01/29 12:51:13;;;;;;;3.90;3.70;;;5.80;99.90;;;;;;4998437;28;20256;-76
2022/01/29 12:53:42;;;;;;;3.55;3.28;;;5.80;99.90;;;;;;5006427;28;20256;-76
2022/01/29 12:56:12;;;;;;;4.30;3.75;;;5.80;99.90;;;;;;5000546;28;20288;-76
2022/01/29 12:58:41;;;;;;;3.17;2.95;;;5.90;99.90;;;;;;5002543;28;20297;-72
2022/01/29 13:01:11;;;;;;;3.40;3.10;;;5.90;99.90;;;;;;5004702;28;20313;-72
2022/01/29 13:03:40;;;;;;;3.92;3.63;;;5.90;99.90;;;;;;5005347;28;20193;-72
2022/01/29 13:06:10;;;;;;;2.58;2.25;;;5.90;99.90;;;;;;5001700;28;20214;-72
2022/01/29 13:08:39;;;;;;;3.15;2.70;;;5.90;99.90;;;;;;5001445;28;20238;-72